Sao Francisco de Paula, Brazil
Current Conditions -  °F | °C
As of 6:00 PM on Friday 24 Oct 2014 (Local Time) from SBCO Reporting Station
Few Clouds Few Clouds  
Wind Chill: 79°   Ceiling: Unl
Heat Index: 81°   Visibility: 6mi
Dew Point: 68°   Wind: 13mph
Humidity: 69%   Direction: 180°S
Pressure: 29.88"   Gusts: NA
Location:  29.45°S, 50.58°W
Report Text: SBCO 242000Z 18011KT 9999 FEW030 26/20 Q1012
Loading
Personal Weather Stations






























Interactive Weather Map
Tropical Storm Tracking
New forecast layout! Learn more

10-Day Weather Forecast

Advertisements
Track Severe Weather on mobile